sensor_id;sensor_type;location;lat;lon;timestamp;temperature;humidity
25208;DHT22;13153;52.316;21.166;2022-10-31T00:01:37;10.60;99.90
25208;DHT22;13153;52.316;21.166;2022-10-31T00:04:04;10.60;99.90
25208;DHT22;13153;52.316;21.166;2022-10-31T00:06:30;10.60;99.90
25208;DHT22;13153;52.316;21.166;2022-10-31T00:09:01;10.60;99.90
25208;DHT22;13153;52.316;21.166;2022-10-31T00:11:28;10.60;99.90
25208;DHT22;13153;52.316;21.166;2022-10-31T00:13:54;10.60;99.90
25208;DHT22;13153;52.316;21.166;2022-10-31T00:16:23;10.50;99.90
25208;DHT22;13153;52.316;21.166;2022-10-31T00:18:55;10.50;99.90
25208;DHT22;13153;52.316;21.166;2022-10-31T00:21:23;10.50;99.90
25208;DHT22;13153;52.316;21.166;2022-10-31T00:23:50;10.50;99.90
25208;DHT22;13153;52.316;21.166;2022-10-31T00:26:16;10.50;99.90
25208;DHT22;13153;52.316;21.166;2022-10-31T00:28:43;10.50;99.90
25208;DHT22;13153;52.316;21.166;2022-10-31T00:31:11;10.50;99.90
25208;DHT22;13153;52.316;21.166;2022-10-31T00:33:39;10.50;99.90
25208;DHT22;13153;52.316;21.166;2022-10-31T00:36:07;10.40;99.90
25208;DHT22;13153;52.316;21.166;2022-10-31T00:38:36;10.40;99.90
25208;DHT22;13153;52.316;21.166;2022-10-31T00:41:01;10.30;99.90
25208;DHT22;13153;52.316;21.166;2022-10-31T00:43:27;10.30;99.90
25208;DHT22;13153;52.316;21.166;2022-10-31T00:45:53;10.30;99.90
25208;DHT22;13153;52.316;21.166;2022-10-31T00:48:19;10.30;99.90
25208;DHT22;13153;52.316;21.166;2022-10-31T00:50:45;10.20;99.90
25208;DHT22;13153;52.316;21.166;2022-10-31T00:53:11;10.20;99.90
25208;DHT22;13153;52.316;21.166;2022-10-31T00:55:36;10.10;99.90
25208;DHT22;13153;52.316;21.166;2022-10-31T00:58:02;10.10;99.90
25208;DHT22;13153;52.316;21.166;2022-10-31T01:00:28;10.10;99.90
25208;DHT22;13153;52.316;21.166;2022-10-31T01:02:54;10.00;99.90
25208;DHT22;13153;52.316;21.166;2022-10-31T01:05:19;10.00;99.90
25208;DHT22;13153;52.316;21.166;2022-10-31T01:07:45;10.00;99.90
25208;DHT22;13153;52.316;21.166;2022-10-31T01:10:11;10.00;99.90
25208;DHT22;13153;52.316;21.166;2022-10-31T01:12:39;10.00;99.90
25208;DHT22;13153;52.316;21.166;2022-10-31T01:15:07;10.00;99.90
25208;DHT22;13153;52.316;21.166;2022-10-31T01:17:33;9.90;99.90
25208;DHT22;13153;52.316;21.166;2022-10-31T01:19:59;9.90;99.90
25208;DHT22;13153;52.316;21.166;2022-10-31T01:22:25;9.90;99.90
25208;DHT22;13153;52.316;21.166;2022-10-31T01:24:51;9.90;99.90
25208;DHT22;13153;52.316;21.166;2022-10-31T01:27:17;9.80;99.90
25208;DHT22;13153;52.316;21.166;2022-10-31T01:29:42;9.80;99.90
25208;DHT22;13153;52.316;21.166;2022-10-31T01:32:08;9.80;99.90
25208;DHT22;13153;52.316;21.166;2022-10-31T01:34:34;9.80;99.90
25208;DHT22;13153;52.316;21.166;2022-10-31T01:37:00;9.80;99.90
25208;DHT22;13153;52.316;21.166;2022-10-31T01:39:25;9.70;99.90
25208;DHT22;13153;52.316;21.166;2022-10-31T01:41:53;9.70;99.90
25208;DHT22;13153;52.316;21.166;2022-10-31T01:52:32;9.70;99.90
25208;DHT22;13153;52.316;21.166;2022-10-31T01:55:47;9.70;99.90
25208;DHT22;13153;52.316;21.166;2022-10-31T01:58:02;9.70;99.90
25208;DHT22;13153;52.316;21.166;2022-10-31T02:00:39;9.60;99.90
25208;DHT22;13153;52.316;21.166;2022-10-31T02:03:09;9.60;99.90
25208;DHT22;13153;52.316;21.166;2022-10-31T02:05:35;9.60;99.90
25208;DHT22;13153;52.316;21.166;2022-10-31T02:10:58;9.60;99.90
25208;DHT22;13153;52.316;21.166;2022-10-31T02:13:28;9.50;99.90
25208;DHT22;13153;52.316;21.166;2022-10-31T02:15:57;9.50;99.90
25208;DHT22;13153;52.316;21.166;2022-10-31T02:18:26;9.40;99.90
25208;DHT22;13153;52.316;21.166;2022-10-31T02:29:59;9.30;99.90
25208;DHT22;13153;52.316;21.166;2022-10-31T02:32:41;9.30;99.90
25208;DHT22;13153;52.316;21.166;2022-10-31T02:41:30;9.30;99.90
25208;DHT22;13153;52.316;21.166;2022-10-31T02:44:16;9.30;99.90
25208;DHT22;13153;52.316;21.166;2022-10-31T02:46:59;9.10;99.90
25208;DHT22;13153;52.316;21.166;2022-10-31T02:49:50;9.10;99.90
25208;DHT22;13153;52.316;21.166;2022-10-31T02:52:36;9.00;99.90
25208;DHT22;13153;52.316;21.166;2022-10-31T02:57:54;9.00;99.90
25208;DHT22;13153;52.316;21.166;2022-10-31T03:00:23;9.00;99.90
25208;DHT22;13153;52.316;21.166;2022-10-31T03:02:57;9.00;99.90
25208;DHT22;13153;52.316;21.166;2022-10-31T03:11:23;9.00;99.90
25208;DHT22;13153;52.316;21.166;2022-10-31T03:14:31;9.00;99.90
25208;DHT22;13153;52.316;21.166;2022-10-31T03:17:08;9.00;99.90
25208;DHT22;13153;52.316;21.166;2022-10-31T03:19:43;9.00;99.90
25208;DHT22;13153;52.316;21.166;2022-10-31T03:22:17;8.90;99.90
25208;DHT22;13153;52.316;21.166;2022-10-31T03:24:47;8.90;99.90
25208;DHT22;13153;52.316;21.166;2022-10-31T03:27:20;8.90;99.90
25208;DHT22;13153;52.316;21.166;2022-10-31T03:29:50;8.90;99.90
25208;DHT22;13153;52.316;21.166;2022-10-31T03:32:34;8.90;99.90
25208;DHT22;13153;52.316;21.166;2022-10-31T03:35:05;8.90;99.90
25208;DHT22;13153;52.316;21.166;2022-10-31T03:37:35;8.90;99.90
25208;DHT22;13153;52.316;21.166;2022-10-31T03:40:05;8.90;99.90
25208;DHT22;13153;52.316;21.166;2022-10-31T03:42:36;8.90;99.90
25208;DHT22;13153;52.316;21.166;2022-10-31T03:45:15;8.90;99.90
25208;DHT22;13153;52.316;21.166;2022-10-31T03:47:46;8.90;99.90
25208;DHT22;13153;52.316;21.166;2022-10-31T03:50:14;8.90;99.90
25208;DHT22;13153;52.316;21.166;2022-10-31T03:53:04;8.90;99.90
25208;DHT22;13153;52.316;21.166;2022-10-31T03:55:51;8.90;99.90
25208;DHT22;13153;52.316;21.166;2022-10-31T03:58:27;8.90;99.90
25208;DHT22;13153;52.316;21.166;2022-10-31T04:01:00;8.80;99.90
25208;DHT22;13153;52.316;21.166;2022-10-31T04:03:32;8.80;99.90
25208;DHT22;13153;52.316;21.166;2022-10-31T04:06:07;8.80;99.90
25208;DHT22;13153;52.316;21.166;2022-10-31T04:08:50;8.80;99.90
25208;DHT22;13153;52.316;21.166;2022-10-31T04:11:23;8.80;99.90
25208;DHT22;13153;52.316;21.166;2022-10-31T04:13:54;8.70;99.90
25208;DHT22;13153;52.316;21.166;2022-10-31T04:16:24;8.70;99.90
25208;DHT22;13153;52.316;21.166;2022-10-31T04:18:52;8.60;99.90
25208;DHT22;13153;52.316;21.166;2022-10-31T04:21:18;8.60;99.90
25208;DHT22;13153;52.316;21.166;2022-10-31T04:23:43;8.60;99.90
25208;DHT22;13153;52.316;21.166;2022-10-31T04:26:12;8.60;99.90
25208;DHT22;13153;52.316;21.166;2022-10-31T04:28:38;8.60;99.90
25208;DHT22;13153;52.316;21.166;2022-10-31T04:31:04;8.60;99.90
25208;DHT22;13153;52.316;21.166;2022-10-31T04:33:30;8.60;99.90
25208;DHT22;13153;52.316;21.166;2022-10-31T04:35:56;8.60;99.90
25208;DHT22;13153;52.316;21.166;2022-10-31T04:38:22;8.60;99.90
25208;DHT22;13153;52.316;21.166;2022-10-31T04:40:47;8.60;99.90
25208;DHT22;13153;52.316;21.166;2022-10-31T04:43:13;8.50;99.90
25208;DHT22;13153;52.316;21.166;2022-10-31T04:45:39;8.50;99.90
25208;DHT22;13153;52.316;21.166;2022-10-31T04:48:05;8.50;99.90
25208;DHT22;13153;52.316;21.166;2022-10-31T04:50:31;8.40;99.90
25208;DHT22;13153;52.316;21.166;2022-10-31T04:52:56;8.30;99.90
25208;DHT22;13153;52.316;21.166;2022-10-31T04:55:22;8.30;99.90
25208;DHT22;13153;52.316;21.166;2022-10-31T04:57:49;8.30;99.90
25208;DHT22;13153;52.316;21.166;2022-10-31T05:00:17;8.30;99.90
25208;DHT22;13153;52.316;21.166;2022-10-31T05:02:49;8.30;99.90
25208;DHT22;13153;52.316;21.166;2022-10-31T05:05:18;8.30;99.90
25208;DHT22;13153;52.316;21.166;2022-10-31T05:07:47;8.30;99.90
25208;DHT22;13153;52.316;21.166;2022-10-31T05:10:17;8.30;99.90
25208;DHT22;13153;52.316;21.166;2022-10-31T05:12:48;8.30;99.90
25208;DHT22;13153;52.316;21.166;2022-10-31T05:15:17;8.30;99.90
25208;DHT22;13153;52.316;21.166;2022-10-31T05:17:44;8.30;99.90
25208;DHT22;13153;52.316;21.166;2022-10-31T05:20:12;8.20;99.90
25208;DHT22;13153;52.316;21.166;2022-10-31T05:22:48;8.20;99.90
25208;DHT22;13153;52.316;21.166;2022-10-31T05:25:17;8.10;99.90
25208;DHT22;13153;52.316;21.166;2022-10-31T05:27:45;8.00;99.90
25208;DHT22;13153;52.316;21.166;2022-10-31T05:30:15;8.00;99.90
25208;DHT22;13153;52.316;21.166;2022-10-31T05:32:45;8.00;99.90
25208;DHT22;13153;52.316;21.166;2022-10-31T05:35:15;8.00;99.90
25208;DHT22;13153;52.316;21.166;2022-10-31T05:37:43;8.00;99.90
25208;DHT22;13153;52.316;21.166;2022-10-31T05:40:11;8.00;99.90
25208;DHT22;13153;52.316;21.166;2022-10-31T05:42:39;8.10;99.90
25208;DHT22;13153;52.316;21.166;2022-10-31T05:45:07;8.10;99.90
25208;DHT22;13153;52.316;21.166;2022-10-31T05:47:35;8.10;99.90
25208;DHT22;13153;52.316;21.166;2022-10-31T05:50:00;8.10;99.90
25208;DHT22;13153;52.316;21.166;2022-10-31T05:52:26;8.10;99.90
25208;DHT22;13153;52.316;21.166;2022-10-31T05:54:52;8.20;99.90
25208;DHT22;13153;52.316;21.166;2022-10-31T05:57:18;8.20;99.90
25208;DHT22;13153;52.316;21.166;2022-10-31T05:59:43;8.10;99.90
25208;DHT22;13153;52.316;21.166;2022-10-31T06:02:09;8.00;99.90
25208;DHT22;13153;52.316;21.166;2022-10-31T06:04:35;8.10;99.90
25208;DHT22;13153;52.316;21.166;2022-10-31T06:07:01;8.20;99.90
25208;DHT22;13153;52.316;21.166;2022-10-31T06:09:27;8.30;99.90
25208;DHT22;13153;52.316;21.166;2022-10-31T06:11:52;8.40;99.90
25208;DHT22;13153;52.316;21.166;2022-10-31T06:14:18;8.40;99.90
25208;DHT22;13153;52.316;21.166;2022-10-31T06:16:44;8.40;99.90
25208;DHT22;13153;52.316;21.166;2022-10-31T06:19:10;8.30;99.90
25208;DHT22;13153;52.316;21.166;2022-10-31T06:21:35;8.30;99.90
25208;DHT22;13153;52.316;21.166;2022-10-31T06:24:01;8.30;99.90
25208;DHT22;13153;52.316;21.166;2022-10-31T06:26:27;8.20;99.90
25208;DHT22;13153;52.316;21.166;2022-10-31T06:28:53;8.30;99.90
25208;DHT22;13153;52.316;21.166;2022-10-31T06:31:18;8.30;99.90
25208;DHT22;13153;52.316;21.166;2022-10-31T06:33:44;8.30;99.90
25208;DHT22;13153;52.316;21.166;2022-10-31T06:36:10;8.40;99.90
25208;DHT22;13153;52.316;21.166;2022-10-31T06:38:36;8.40;99.90
25208;DHT22;13153;52.316;21.166;2022-10-31T06:41:03;8.30;99.90
25208;DHT22;13153;52.316;21.166;2022-10-31T06:43:30;8.30;99.90
25208;DHT22;13153;52.316;21.166;2022-10-31T06:45:57;8.50;99.90
25208;DHT22;13153;52.316;21.166;2022-10-31T06:48:26;8.50;99.90
25208;DHT22;13153;52.316;21.166;2022-10-31T06:50:52;8.40;99.90
25208;DHT22;13153;52.316;21.166;2022-10-31T06:53:18;8.30;99.90
25208;DHT22;13153;52.316;21.166;2022-10-31T06:55:43;8.20;99.90
25208;DHT22;13153;52.316;21.166;2022-10-31T06:58:10;8.20;99.90
25208;DHT22;13153;52.316;21.166;2022-10-31T07:00:36;8.30;99.90
25208;DHT22;13153;52.316;21.166;2022-10-31T07:03:05;8.40;99.90
25208;DHT22;13153;52.316;21.166;2022-10-31T07:05:32;8.70;99.90
25208;DHT22;13153;52.316;21.166;2022-10-31T07:08:00;9.00;99.90
25208;DHT22;13153;52.316;21.166;2022-10-31T07:10:32;9.30;99.90
25208;DHT22;13153;52.316;21.166;2022-10-31T07:13:02;9.60;99.90
25208;DHT22;13153;52.316;21.166;2022-10-31T07:15:33;9.80;99.90
25208;DHT22;13153;52.316;21.166;2022-10-31T07:18:01;10.10;99.90
25208;DHT22;13153;52.316;21.166;2022-10-31T07:20:31;10.40;99.90
25208;DHT22;13153;52.316;21.166;2022-10-31T07:22:58;10.70;99.90
25208;DHT22;13153;52.316;21.166;2022-10-31T07:25:24;11.00;99.90
25208;DHT22;13153;52.316;21.166;2022-10-31T07:27:50;11.40;99.90
25208;DHT22;13153;52.316;21.166;2022-10-31T07:30:16;11.70;99.90
25208;DHT22;13153;52.316;21.166;2022-10-31T07:32:47;12.00;99.90
25208;DHT22;13153;52.316;21.166;2022-10-31T07:35:16;12.30;99.90
25208;DHT22;13153;52.316;21.166;2022-10-31T07:37:46;12.50;99.90
25208;DHT22;13153;52.316;21.166;2022-10-31T07:40:13;12.70;99.90
25208;DHT22;13153;52.316;21.166;2022-10-31T07:42:40;12.90;99.90
25208;DHT22;13153;52.316;21.166;2022-10-31T07:45:10;13.00;99.90
25208;DHT22;13153;52.316;21.166;2022-10-31T07:47:45;13.20;99.90
25208;DHT22;13153;52.316;21.166;2022-10-31T07:50:20;13.40;99.90
25208;DHT22;13153;52.316;21.166;2022-10-31T07:52:47;13.50;99.90
25208;DHT22;13153;52.316;21.166;2022-10-31T07:55:14;13.60;99.90
25208;DHT22;13153;52.316;21.166;2022-10-31T07:57:40;13.70;99.90
25208;DHT22;13153;52.316;21.166;2022-10-31T08:00:08;13.90;99.90
25208;DHT22;13153;52.316;21.166;2022-10-31T08:02:35;14.00;99.90
25208;DHT22;13153;52.316;21.166;2022-10-31T08:05:01;14.10;99.90
25208;DHT22;13153;52.316;21.166;2022-10-31T08:07:29;14.20;99.90
25208;DHT22;13153;52.316;21.166;2022-10-31T08:10:01;14.20;99.90
25208;DHT22;13153;52.316;21.166;2022-10-31T08:12:27;14.30;99.90
25208;DHT22;13153;52.316;21.166;2022-10-31T08:14:53;14.30;99.90
25208;DHT22;13153;52.316;21.166;2022-10-31T08:17:19;14.50;99.90
25208;DHT22;13153;52.316;21.166;2022-10-31T08:19:45;14.60;99.90
25208;DHT22;13153;52.316;21.166;2022-10-31T08:22:10;14.70;99.90
25208;DHT22;13153;52.316;21.166;2022-10-31T08:24:36;14.90;99.90
25208;DHT22;13153;52.316;21.166;2022-10-31T08:27:02;15.00;99.90
25208;DHT22;13153;52.316;21.166;2022-10-31T08:29:28;15.10;99.90
25208;DHT22;13153;52.316;21.166;2022-10-31T08:31:53;15.30;99.90
25208;DHT22;13153;52.316;21.166;2022-10-31T08:34:19;15.50;99.90
25208;DHT22;13153;52.316;21.166;2022-10-31T08:36:45;15.60;99.90
25208;DHT22;13153;52.316;21.166;2022-10-31T08:39:11;15.60;99.90
25208;DHT22;13153;52.316;21.166;2022-10-31T08:41:37;15.50;99.90
25208;DHT22;13153;52.316;21.166;2022-10-31T08:44:03;15.40;99.90
25208;DHT22;13153;52.316;21.166;2022-10-31T08:46:29;15.50;99.90
25208;DHT22;13153;52.316;21.166;2022-10-31T08:48:54;15.50;99.90
25208;DHT22;13153;52.316;21.166;2022-10-31T08:51:20;15.60;99.90
25208;DHT22;13153;52.316;21.166;2022-10-31T08:53:46;15.70;99.90
25208;DHT22;13153;52.316;21.166;2022-10-31T08:56:11;15.90;99.90
25208;DHT22;13153;52.316;21.166;2022-10-31T08:58:37;16.00;99.90
25208;DHT22;13153;52.316;21.166;2022-10-31T09:01:03;16.00;99.90
25208;DHT22;13153;52.316;21.166;2022-10-31T09:03:30;16.00;99.90
25208;DHT22;13153;52.316;21.166;2022-10-31T09:06:01;16.00;99.90
25208;DHT22;13153;52.316;21.166;2022-10-31T09:08:32;16.10;99.90
25208;DHT22;13153;52.316;21.166;2022-10-31T09:10:58;16.20;99.90
25208;DHT22;13153;52.316;21.166;2022-10-31T09:13:25;16.30;99.90
25208;DHT22;13153;52.316;21.166;2022-10-31T09:15:51;16.30;99.90
25208;DHT22;13153;52.316;21.166;2022-10-31T09:18:19;16.30;99.90
25208;DHT22;13153;52.316;21.166;2022-10-31T09:20:48;16.30;99.90
25208;DHT22;13153;52.316;21.166;2022-10-31T09:23:17;16.40;99.90
25208;DHT22;13153;52.316;21.166;2022-10-31T09:25:47;16.50;99.90
25208;DHT22;13153;52.316;21.166;2022-10-31T09:28:15;16.60;99.90
25208;DHT22;13153;52.316;21.166;2022-10-31T09:30:49;16.60;99.90
25208;DHT22;13153;52.316;21.166;2022-10-31T09:33:18;16.70;99.90
25208;DHT22;13153;52.316;21.166;2022-10-31T09:35:44;16.90;99.90
25208;DHT22;13153;52.316;21.166;2022-10-31T09:38:12;17.00;99.90
25208;DHT22;13153;52.316;21.166;2022-10-31T09:40:46;17.10;99.90
25208;DHT22;13153;52.316;21.166;2022-10-31T09:46:27;17.20;99.90
25208;DHT22;13153;52.316;21.166;2022-10-31T09:52:19;17.10;99.90
25208;DHT22;13153;52.316;21.166;2022-10-31T09:54:58;17.00;99.90
25208;DHT22;13153;52.316;21.166;2022-10-31T09:57:31;16.90;99.90
25208;DHT22;13153;52.316;21.166;2022-10-31T10:00:03;16.90;99.90
25208;DHT22;13153;52.316;21.166;2022-10-31T10:02:37;16.90;99.90
25208;DHT22;13153;52.316;21.166;2022-10-31T10:05:43;16.90;99.90
25208;DHT22;13153;52.316;21.166;2022-10-31T10:08:20;16.90;99.90
25208;DHT22;13153;52.316;21.166;2022-10-31T10:19:22;16.80;99.90
25208;DHT22;13153;52.316;21.166;2022-10-31T10:22:06;16.80;99.90
25208;DHT22;13153;52.316;21.166;2022-10-31T10:31:03;16.80;99.90
25208;DHT22;13153;52.316;21.166;2022-10-31T10:36:21;16.80;99.90
25208;DHT22;13153;52.316;21.166;2022-10-31T10:39:04;16.80;99.90
25208;DHT22;13153;52.316;21.166;2022-10-31T10:41:43;16.80;99.90
25208;DHT22;13153;52.316;21.166;2022-10-31T10:44:12;16.80;99.90
25208;DHT22;13153;52.316;21.166;2022-10-31T10:46:51;16.80;99.90
25208;DHT22;13153;52.316;21.166;2022-10-31T10:49:52;16.70;99.90
25208;DHT22;13153;52.316;21.166;2022-10-31T10:52:41;16.70;99.90
25208;DHT22;13153;52.316;21.166;2022-10-31T10:58:42;16.70;99.90
25208;DHT22;13153;52.316;21.166;2022-10-31T11:01:15;16.70;99.90
25208;DHT22;13153;52.316;21.166;2022-10-31T11:03:41;16.70;99.90
25208;DHT22;13153;52.316;21.166;2022-10-31T11:06:23;16.70;99.90
25208;DHT22;13153;52.316;21.166;2022-10-31T11:08:53;16.60;99.90
25208;DHT22;13153;52.316;21.166;2022-10-31T11:11:22;16.60;99.90
25208;DHT22;13153;52.316;21.166;2022-10-31T11:14:12;16.60;99.90
25208;DHT22;13153;52.316;21.166;2022-10-31T11:16:43;16.60;99.90
25208;DHT22;13153;52.316;21.166;2022-10-31T11:19:19;16.60;99.90
25208;DHT22;13153;52.316;21.166;2022-10-31T11:21:48;16.60;99.90
25208;DHT22;13153;52.316;21.166;2022-10-31T11:24:17;16.60;99.90
25208;DHT22;13153;52.316;21.166;2022-10-31T11:26:47;16.60;99.90
25208;DHT22;13153;52.316;21.166;2022-10-31T11:29:23;16.60;99.90
25208;DHT22;13153;52.316;21.166;2022-10-31T11:31:53;16.60;99.90
25208;DHT22;13153;52.316;21.166;2022-10-31T11:34:30;16.60;99.90
25208;DHT22;13153;52.316;21.166;2022-10-31T11:37:12;16.60;99.90
25208;DHT22;13153;52.316;21.166;2022-10-31T11:39:45;16.50;99.90
25208;DHT22;13153;52.316;21.166;2022-10-31T11:42:30;16.40;99.90
25208;DHT22;13153;52.316;21.166;2022-10-31T11:45:12;16.40;99.90
25208;DHT22;13153;52.316;21.166;2022-10-31T11:47:44;16.40;99.90
25208;DHT22;13153;52.316;21.166;2022-10-31T11:50:21;16.40;99.90
25208;DHT22;13153;52.316;21.166;2022-10-31T11:52:50;16.40;99.90
25208;DHT22;13153;52.316;21.166;2022-10-31T11:55:38;16.40;99.90
25208;DHT22;13153;52.316;21.166;2022-10-31T11:58:23;16.40;99.90
25208;DHT22;13153;52.316;21.166;2022-10-31T12:00:53;16.50;99.90
25208;DHT22;13153;52.316;21.166;2022-10-31T12:03:47;16.40;99.90
25208;DHT22;13153;52.316;21.166;2022-10-31T12:06:45;16.50;99.90
25208;DHT22;13153;52.316;21.166;2022-10-31T12:09:24;16.50;99.90
25208;DHT22;13153;52.316;21.166;2022-10-31T12:17:46;16.40;99.90
25208;DHT22;13153;52.316;21.166;2022-10-31T12:32:03;16.40;99.90
25208;DHT22;13153;52.316;21.166;2022-10-31T12:43:30;16.40;99.90
25208;DHT22;13153;52.316;21.166;2022-10-31T12:46:03;16.40;99.90
25208;DHT22;13153;52.316;21.166;2022-10-31T12:57:27;16.50;99.90
25208;DHT22;13153;52.316;21.166;2022-10-31T13:08:49;16.40;99.90
25208;DHT22;13153;52.316;21.166;2022-10-31T13:11:43;16.50;99.90
25208;DHT22;13153;52.316;21.166;2022-10-31T13:15:11;16.50;99.90
25208;DHT22;13153;52.316;21.166;2022-10-31T13:19:55;16.50;99.90
25208;DHT22;13153;52.316;21.166;2022-10-31T13:22:34;16.40;99.90
25208;DHT22;13153;52.316;21.166;2022-10-31T13:25:25;16.50;99.90
25208;DHT22;13153;52.316;21.166;2022-10-31T13:28:48;16.50;99.90
25208;DHT22;13153;52.316;21.166;2022-10-31T13:30:53;16.50;99.90
25208;DHT22;13153;52.316;21.166;2022-10-31T13:33:24;16.50;99.90
25208;DHT22;13153;52.316;21.166;2022-10-31T13:38:52;16.40;99.90
25208;DHT22;13153;52.316;21.166;2022-10-31T13:44:19;16.40;99.90
25208;DHT22;13153;52.316;21.166;2022-10-31T13:46:49;16.40;99.90
25208;DHT22;13153;52.316;21.166;2022-10-31T13:49:39;16.40;99.90
25208;DHT22;13153;52.316;21.166;2022-10-31T13:52:25;16.40;99.90
25208;DHT22;13153;52.316;21.166;2022-10-31T13:54:53;16.50;99.90
25208;DHT22;13153;52.316;21.166;2022-10-31T13:57:31;16.50;99.90
25208;DHT22;13153;52.316;21.166;2022-10-31T14:00:14;16.50;99.90
25208;DHT22;13153;52.316;21.166;2022-10-31T14:02:51;16.50;99.90
25208;DHT22;13153;52.316;21.166;2022-10-31T14:08:00;16.50;99.90
25208;DHT22;13153;52.316;21.166;2022-10-31T14:10:32;16.50;99.90
25208;DHT22;13153;52.316;21.166;2022-10-31T14:13:20;16.50;99.90
25208;DHT22;13153;52.316;21.166;2022-10-31T14:15:57;16.50;99.90
25208;DHT22;13153;52.316;21.166;2022-10-31T14:18:35;16.40;99.90
25208;DHT22;13153;52.316;21.166;2022-10-31T14:23:54;16.30;99.90
25208;DHT22;13153;52.316;21.166;2022-10-31T14:28:53;16.30;99.90
25208;DHT22;13153;52.316;21.166;2022-10-31T14:31:32;16.20;99.90
25208;DHT22;13153;52.316;21.166;2022-10-31T14:34:38;16.20;99.90
25208;DHT22;13153;52.316;21.166;2022-10-31T14:37:22;16.10;99.90
25208;DHT22;13153;52.316;21.166;2022-10-31T14:46:39;16.00;99.90
25208;DHT22;13153;52.316;21.166;2022-10-31T14:52:49;15.80;99.90
25208;DHT22;13153;52.316;21.166;2022-10-31T14:55:18;15.80;99.90
25208;DHT22;13153;52.316;21.166;2022-10-31T14:57:52;15.80;99.90
25208;DHT22;13153;52.316;21.166;2022-10-31T15:00:23;15.70;99.90
25208;DHT22;13153;52.316;21.166;2022-10-31T15:05:22;15.70;99.90
25208;DHT22;13153;52.316;21.166;2022-10-31T15:07:56;15.60;99.90
25208;DHT22;13153;52.316;21.166;2022-10-31T15:10:30;15.60;99.90
25208;DHT22;13153;52.316;21.166;2022-10-31T15:13:18;15.50;99.90
25208;DHT22;13153;52.316;21.166;2022-10-31T15:15:47;15.40;99.90
25208;DHT22;13153;52.316;21.166;2022-10-31T15:18:27;15.40;99.90
25208;DHT22;13153;52.316;21.166;2022-10-31T15:20:55;15.30;99.90
25208;DHT22;13153;52.316;21.166;2022-10-31T15:23:25;15.30;99.90
25208;DHT22;13153;52.316;21.166;2022-10-31T15:26:04;15.20;99.90
25208;DHT22;13153;52.316;21.166;2022-10-31T15:28:31;15.20;99.90
25208;DHT22;13153;52.316;21.166;2022-10-31T15:30:59;15.20;99.90
25208;DHT22;13153;52.316;21.166;2022-10-31T15:33:29;15.10;99.90
25208;DHT22;13153;52.316;21.166;2022-10-31T15:36:01;15.00;99.90
25208;DHT22;13153;52.316;21.166;2022-10-31T15:38:28;15.00;99.90
25208;DHT22;13153;52.316;21.166;2022-10-31T15:43:24;14.90;99.90
25208;DHT22;13153;52.316;21.166;2022-10-31T15:45:51;14.80;99.90
25208;DHT22;13153;52.316;21.166;2022-10-31T15:48:19;14.70;99.90
25208;DHT22;13153;52.316;21.166;2022-10-31T15:50:56;14.70;99.90
25208;DHT22;13153;52.316;21.166;2022-10-31T15:53:38;14.60;99.90
25208;DHT22;13153;52.316;21.166;2022-10-31T15:56:13;14.50;99.90
25208;DHT22;13153;52.316;21.166;2022-10-31T15:58:48;14.50;99.90
25208;DHT22;13153;52.316;21.166;2022-10-31T16:01:23;14.40;99.90
25208;DHT22;13153;52.316;21.166;2022-10-31T16:06:30;14.30;99.90
25208;DHT22;13153;52.316;21.166;2022-10-31T16:08:58;14.30;99.90
25208;DHT22;13153;52.316;21.166;2022-10-31T16:11:35;14.20;99.90
25208;DHT22;13153;52.316;21.166;2022-10-31T16:16:42;14.10;99.90
25208;DHT22;13153;52.316;21.166;2022-10-31T16:19:33;14.10;99.90
25208;DHT22;13153;52.316;21.166;2022-10-31T16:22:07;14.10;99.90
25208;DHT22;13153;52.316;21.166;2022-10-31T16:24:46;14.00;99.90
25208;DHT22;13153;52.316;21.166;2022-10-31T16:27:28;14.00;99.90
25208;DHT22;13153;52.316;21.166;2022-10-31T16:29:58;13.90;99.90
25208;DHT22;13153;52.316;21.166;2022-10-31T16:32:51;13.90;99.90
25208;DHT22;13153;52.316;21.166;2022-10-31T16:35:35;13.90;99.90
25208;DHT22;13153;52.316;21.166;2022-10-31T16:38:04;13.90;99.90
25208;DHT22;13153;52.316;21.166;2022-10-31T16:40:31;13.80;99.90
25208;DHT22;13153;52.316;21.166;2022-10-31T16:42:59;13.80;99.90
25208;DHT22;13153;52.316;21.166;2022-10-31T16:45:28;13.80;99.90
25208;DHT22;13153;52.316;21.166;2022-10-31T16:48:03;13.70;99.90
25208;DHT22;13153;52.316;21.166;2022-10-31T16:50:37;13.70;99.90
25208;DHT22;13153;52.316;21.166;2022-10-31T16:53:04;13.70;99.90
25208;DHT22;13153;52.316;21.166;2022-10-31T16:55:31;13.60;99.90
25208;DHT22;13153;52.316;21.166;2022-10-31T16:58:00;13.60;99.90
25208;DHT22;13153;52.316;21.166;2022-10-31T17:00:27;13.60;99.90
25208;DHT22;13153;52.316;21.166;2022-10-31T17:02:55;13.50;99.90
25208;DHT22;13153;52.316;21.166;2022-10-31T17:05:22;13.50;99.90
25208;DHT22;13153;52.316;21.166;2022-10-31T17:07:55;13.50;99.90
25208;DHT22;13153;52.316;21.166;2022-10-31T17:10:22;13.40;99.90
25208;DHT22;13153;52.316;21.166;2022-10-31T17:12:49;13.40;99.90
25208;DHT22;13153;52.316;21.166;2022-10-31T17:15:22;13.40;99.90
25208;DHT22;13153;52.316;21.166;2022-10-31T17:17:49;13.30;99.90
25208;DHT22;13153;52.316;21.166;2022-10-31T17:20:48;13.30;99.90
25208;DHT22;13153;52.316;21.166;2022-10-31T17:23:13;13.20;99.90
25208;DHT22;13153;52.316;21.166;2022-10-31T17:25:40;13.20;99.90
25208;DHT22;13153;52.316;21.166;2022-10-31T17:28:11;13.20;99.90
25208;DHT22;13153;52.316;21.166;2022-10-31T17:30:39;13.10;99.90
25208;DHT22;13153;52.316;21.166;2022-10-31T17:33:05;13.10;99.90
25208;DHT22;13153;52.316;21.166;2022-10-31T17:35:31;13.10;99.90
25208;DHT22;13153;52.316;21.166;2022-10-31T17:37:57;13.10;99.90
25208;DHT22;13153;52.316;21.166;2022-10-31T17:40:23;13.20;99.90
25208;DHT22;13153;52.316;21.166;2022-10-31T17:42:54;13.20;99.90
25208;DHT22;13153;52.316;21.166;2022-10-31T17:45:22;13.10;99.90
25208;DHT22;13153;52.316;21.166;2022-10-31T17:47:50;13.10;99.90
25208;DHT22;13153;52.316;21.166;2022-10-31T17:50:19;13.00;99.90
25208;DHT22;13153;52.316;21.166;2022-10-31T17:52:47;13.00;99.90
25208;DHT22;13153;52.316;21.166;2022-10-31T17:55:14;13.00;99.90
25208;DHT22;13153;52.316;21.166;2022-10-31T17:57:40;13.00;99.90
25208;DHT22;13153;52.316;21.166;2022-10-31T18:00:14;12.90;99.90
25208;DHT22;13153;52.316;21.166;2022-10-31T18:02:43;13.00;99.90
25208;DHT22;13153;52.316;21.166;2022-10-31T18:05:09;13.00;99.90
25208;DHT22;13153;52.316;21.166;2022-10-31T18:07:35;13.00;99.90
25208;DHT22;13153;52.316;21.166;2022-10-31T18:10:01;13.00;99.90